createdAt,value
2018-01-30T00:01:39.886Z,94.20
2018-01-30T00:04:07.332Z,94.10
2018-01-30T00:06:34.802Z,94.30
2018-01-30T00:09:02.258Z,94.30
2018-01-30T00:11:29.751Z,94.10
2018-01-30T00:13:57.246Z,93.50
2018-01-30T00:16:24.703Z,93.40
2018-01-30T00:18:52.214Z,93.80
2018-01-30T00:21:19.805Z,93.20
2018-01-30T00:23:47.289Z,93.50
2018-01-30T00:26:14.732Z,93.10
2018-01-30T00:28:42.181Z,93.10
2018-01-30T00:31:09.625Z,93.00
2018-01-30T00:33:37.077Z,92.30
2018-01-30T00:36:04.525Z,92.10
2018-01-30T00:38:31.969Z,92.30
2018-01-30T00:40:59.445Z,92.40
2018-01-30T00:43:26.897Z,92.50
2018-01-30T00:45:54.454Z,92.50
2018-01-30T00:48:21.992Z,92.60
2018-01-30T00:50:49.444Z,92.80
2018-01-30T00:53:16.897Z,93.10
2018-01-30T00:55:44.436Z,93.00
2018-01-30T00:58:11.892Z,93.00
2018-01-30T01:00:40.144Z,93.40
2018-01-30T01:03:07.618Z,93.40
2018-01-30T01:05:35.070Z,93.20
2018-01-30T01:08:02.517Z,93.10
2018-01-30T01:10:29.978Z,93.20
2018-01-30T01:12:57.457Z,93.20
2018-01-30T01:15:24.948Z,93.30
2018-01-30T01:17:52.575Z,93.00
2018-01-30T01:20:20.129Z,93.30
2018-01-30T01:22:47.601Z,93.40
2018-01-30T01:25:15.056Z,93.30
2018-01-30T01:27:42.510Z,93.20
2018-01-30T01:30:10.766Z,93.50
2018-01-30T01:32:38.241Z,93.40
2018-01-30T01:35:05.688Z,93.40
2018-01-30T01:37:33.905Z,93.20
2018-01-30T01:40:01.424Z,93.20
2018-01-30T01:42:29.005Z,92.80
2018-01-30T01:44:56.508Z,92.70
2018-01-30T01:47:23.972Z,92.80
2018-01-30T01:49:51.449Z,92.50
2018-01-30T01:52:19.025Z,92.10
2018-01-30T01:54:46.522Z,92.00
2018-01-30T01:57:13.990Z,92.00
2018-01-30T01:59:41.485Z,91.80
2018-01-30T02:02:08.962Z,91.60
2018-01-30T02:04:36.433Z,91.60
2018-01-30T02:07:04.152Z,91.60
2018-01-30T02:09:31.714Z,91.90
2018-01-30T02:11:59.164Z,92.00
2018-01-30T02:14:26.622Z,92.00
2018-01-30T02:16:54.069Z,91.50
2018-01-30T02:19:22.306Z,89.30
2018-01-30T02:21:49.797Z,89.20
2018-01-30T02:24:17.253Z,85.30
2018-01-30T02:26:44.758Z,83.10
2018-01-30T02:29:12.202Z,80.80
2018-01-30T02:31:39.655Z,78.80
2018-01-30T02:34:07.174Z,79.30
2018-01-30T02:36:35.501Z,77.00
2018-01-30T02:39:02.958Z,77.40
2018-01-30T02:41:30.404Z,75.80
2018-01-30T02:43:57.858Z,76.80
2018-01-30T02:46:25.305Z,76.10
2018-01-30T02:48:52.901Z,77.00
2018-01-30T02:51:20.365Z,77.50
2018-01-30T02:53:47.812Z,78.20
2018-01-30T02:56:15.376Z,78.00
2018-01-30T02:58:42.910Z,76.40
2018-01-30T03:01:11.129Z,76.60
2018-01-30T03:03:38.586Z,76.60
2018-01-30T03:06:06.805Z,75.80
2018-01-30T03:08:34.261Z,75.70
2018-01-30T03:11:01.714Z,77.00
2018-01-30T03:13:29.288Z,77.00
2018-01-30T03:15:56.766Z,76.70
2018-01-30T03:18:24.213Z,77.00
2018-01-30T03:20:52.421Z,77.80
2018-01-30T03:23:19.928Z,77.70
2018-01-30T03:25:47.445Z,79.00
2018-01-30T03:28:14.949Z,78.80
2018-01-30T03:30:42.511Z,79.90
2018-01-30T03:33:09.991Z,79.90
2018-01-30T03:35:37.478Z,79.80
2018-01-30T03:38:04.961Z,81.10
2018-01-30T03:40:32.459Z,80.00
2018-01-30T03:42:59.933Z,80.70
2018-01-30T03:45:27.426Z,81.60
2018-01-30T03:47:54.901Z,81.80
2018-01-30T03:50:22.377Z,81.80
2018-01-30T03:52:49.831Z,82.30
2018-01-30T03:55:17.281Z,82.60
2018-01-30T03:57:45.501Z,81.70
2018-01-30T04:00:13.724Z,81.90
2018-01-30T04:02:41.225Z,81.90
2018-01-30T04:05:08.677Z,82.20
2018-01-30T04:07:36.920Z,81.60
2018-01-30T04:10:04.458Z,81.60
2018-01-30T04:12:32.670Z,81.90
2018-01-30T04:15:00.171Z,81.90
2018-01-30T04:17:27.669Z,81.80
2018-01-30T04:19:55.118Z,81.90
2018-01-30T04:22:22.570Z,82.10
2018-01-30T04:24:50.032Z,82.40
2018-01-30T04:27:17.486Z,82.60
2018-01-30T04:29:44.929Z,82.90
2018-01-30T04:32:13.158Z,84.00
2018-01-30T04:34:40.669Z,84.00
2018-01-30T04:37:08.240Z,84.00
2018-01-30T04:39:35.701Z,84.60
2018-01-30T04:42:03.214Z,85.20
2018-01-30T04:44:30.669Z,85.70
2018-01-30T04:46:58.178Z,86.10
2018-01-30T04:49:25.686Z,86.00
2018-01-30T04:51:53.122Z,86.70
2018-01-30T04:54:20.570Z,86.90
2018-01-30T04:56:48.821Z,87.20
2018-01-30T04:59:16.274Z,87.20
2018-01-30T05:01:43.722Z,87.70
2018-01-30T05:04:11.971Z,88.90
2018-01-30T05:06:39.510Z,88.80
2018-01-30T05:09:07.721Z,89.60
2018-01-30T05:11:35.234Z,89.60
2018-01-30T05:14:03.450Z,90.00
2018-01-30T05:16:30.905Z,90.00
2018-01-30T05:18:58.351Z,90.10
2018-01-30T05:21:26.601Z,90.30
2018-01-30T05:23:54.048Z,90.30
2018-01-30T05:26:21.506Z,90.60
2018-01-30T05:28:48.952Z,90.90
2018-01-30T05:31:16.411Z,90.80
2018-01-30T05:33:43.862Z,90.60
2018-01-30T05:36:12.208Z,90.00
2018-01-30T05:38:39.690Z,90.00
2018-01-30T05:41:07.174Z,90.00
2018-01-30T05:43:34.653Z,90.00
2018-01-30T05:46:02.135Z,90.10
2018-01-30T05:48:29.580Z,90.40
2018-01-30T05:50:57.118Z,90.60
2018-01-30T05:53:24.639Z,90.60
2018-01-30T05:55:52.143Z,90.80
2018-01-30T05:58:19.647Z,90.90
2018-01-30T06:00:47.107Z,90.90
2018-01-30T06:03:15.319Z,91.00
2018-01-30T06:05:43.657Z,91.30
2018-01-30T06:08:11.124Z,91.30
2018-01-30T06:10:38.733Z,91.40
2018-01-30T06:13:06.971Z,91.60
2018-01-30T06:15:35.230Z,92.00
2018-01-30T06:18:02.696Z,91.90
2018-01-30T06:20:30.148Z,92.10
2018-01-30T06:22:58.373Z,92.10
2018-01-30T06:25:25.865Z,92.10
2018-01-30T06:27:53.329Z,92.30
2018-01-30T06:30:20.781Z,92.50
2018-01-30T06:32:49.013Z,93.00
2018-01-30T06:35:16.520Z,93.00
2018-01-30T06:37:43.985Z,92.90
2018-01-30T06:40:11.475Z,92.90
2018-01-30T06:42:39.008Z,92.80
2018-01-30T06:45:07.225Z,93.30
2018-01-30T06:47:34.739Z,93.30
2018-01-30T06:50:02.189Z,93.40
2018-01-30T06:52:29.643Z,93.30
2018-01-30T06:54:57.953Z,93.50
2018-01-30T06:57:26.168Z,93.30
2018-01-30T06:59:53.618Z,93.30
2018-01-30T07:02:21.069Z,93.30
2018-01-30T07:04:48.545Z,93.30
2018-01-30T07:07:16.030Z,93.20
2018-01-30T07:09:43.626Z,93.30
2018-01-30T07:12:11.090Z,93.20
2018-01-30T07:14:38.566Z,93.20
2018-01-30T07:17:06.019Z,93.30
2018-01-30T07:19:33.470Z,93.20
2018-01-30T07:22:01.013Z,92.80
2018-01-30T07:24:28.494Z,93.30
2018-01-30T07:26:55.975Z,93.20
2018-01-30T07:29:23.417Z,92.30
2018-01-30T07:31:51.656Z,90.00
2018-01-30T07:34:19.109Z,90.00
2018-01-30T07:36:47.338Z,90.00
2018-01-30T07:39:14.921Z,90.00
2018-01-30T07:41:42.392Z,90.40
2018-01-30T07:44:09.853Z,90.90
2018-01-30T07:46:37.306Z,91.30
2018-01-30T07:49:05.522Z,89.40
2018-01-30T07:51:32.997Z,89.30
2018-01-30T07:54:01.250Z,77.60
2018-01-30T07:56:28.696Z,77.40
2018-01-30T07:58:56.225Z,69.10
2018-01-30T08:01:23.684Z,61.50
2018-01-30T08:03:51.174Z,56.40
2018-01-30T08:06:18.653Z,52.50
2018-01-30T08:08:46.159Z,47.80
2018-01-30T08:11:13.611Z,43.40
2018-01-30T08:13:41.101Z,40.90
2018-01-30T08:16:08.579Z,40.80
2018-01-30T08:18:36.038Z,37.80
2018-01-30T08:21:03.493Z,39.10
2018-01-30T08:23:31.744Z,41.60
2018-01-30T08:25:59.219Z,41.60
2018-01-30T08:28:26.703Z,39.10
2018-01-30T08:30:54.160Z,37.90
2018-01-30T08:33:21.617Z,36.50
2018-01-30T08:35:49.865Z,35.30
2018-01-30T08:38:17.352Z,35.10
2018-01-30T08:40:44.924Z,34.30
2018-01-30T08:43:12.406Z,33.90
2018-01-30T08:45:39.881Z,33.30
2018-01-30T08:48:07.350Z,32.10
2018-01-30T08:50:34.853Z,31.30
2018-01-30T08:53:02.311Z,30.30
2018-01-30T08:55:29.763Z,32.60
2018-01-30T08:57:57.977Z,33.20
2018-01-30T09:00:25.661Z,33.10
2018-01-30T09:02:53.878Z,34.70
2018-01-30T09:05:21.384Z,34.70
2018-01-30T09:07:48.849Z,35.50
2018-01-30T09:10:16.357Z,33.10
2018-01-30T09:12:43.809Z,33.30
2018-01-30T09:15:11.301Z,30.30
2018-01-30T09:17:38.788Z,28.30
2018-01-30T09:20:06.244Z,27.70
2018-01-30T09:22:33.756Z,28.60
2018-01-30T09:25:01.214Z,28.70
2018-01-30T09:27:28.713Z,28.40
2018-01-30T09:29:56.174Z,27.60
2018-01-30T09:32:23.630Z,29.00
2018-01-30T09:34:51.845Z,30.50
2018-01-30T09:37:19.302Z,30.40
2018-01-30T09:39:47.526Z,29.40
2018-01-30T09:42:14.986Z,29.20
2018-01-30T09:44:43.213Z,26.60
2018-01-30T09:47:10.673Z,26.50
2018-01-30T09:49:38.921Z,25.30
2018-01-30T09:52:06.385Z,25.20
2018-01-30T09:54:33.851Z,25.10
2018-01-30T09:57:01.320Z,26.50
2018-01-30T09:59:29.572Z,26.70
2018-01-30T10:01:57.027Z,26.70
2018-01-30T10:04:24.641Z,27.30
2018-01-30T10:06:52.114Z,28.40
2018-01-30T10:09:19.568Z,29.60
2018-01-30T10:11:47.028Z,28.40
2018-01-30T10:14:15.273Z,25.20
2018-01-30T10:16:42.746Z,25.20
2018-01-30T10:19:10.232Z,26.20
2018-01-30T10:21:37.708Z,25.20
2018-01-30T10:24:05.197Z,25.00
2018-01-30T10:26:32.662Z,24.30
2018-01-30T10:29:00.125Z,23.10
2018-01-30T10:31:27.568Z,22.70
2018-01-30T10:33:55.045Z,21.90
2018-01-30T10:36:22.605Z,21.90
2018-01-30T10:38:50.053Z,21.40
2018-01-30T10:41:17.511Z,20.50
2018-01-30T10:43:45.768Z,24.10
2018-01-30T10:46:13.296Z,24.10
2018-01-30T10:48:41.516Z,24.40
2018-01-30T10:51:09.030Z,24.30
2018-01-30T10:53:36.485Z,23.10
2018-01-30T10:56:03.984Z,24.40
2018-01-30T10:58:31.473Z,25.50
2018-01-30T11:00:58.960Z,25.70
2018-01-30T11:03:26.414Z,25.80
2018-01-30T11:05:53.884Z,27.00
2018-01-30T11:08:21.341Z,26.20
2018-01-30T11:10:49.578Z,25.30
2018-01-30T11:13:17.082Z,25.20
2018-01-30T11:15:45.285Z,27.90
2018-01-30T11:18:12.739Z,30.00
2018-01-30T11:20:40.236Z,30.90
2018-01-30T11:23:07.689Z,32.10
2018-01-30T11:25:35.141Z,30.80
2018-01-30T11:28:03.361Z,31.50
2018-01-30T11:30:31.607Z,31.50
2018-01-30T11:32:59.082Z,31.50
2018-01-30T11:35:26.557Z,32.60
2018-01-30T11:37:54.041Z,32.70
2018-01-30T11:40:21.517Z,36.10
2018-01-30T11:42:49.014Z,36.80
2018-01-30T11:45:16.494Z,36.70
2018-01-30T11:47:43.952Z,35.70
2018-01-30T11:50:11.459Z,35.20
2018-01-30T11:52:38.922Z,37.40
2018-01-30T11:55:06.410Z,33.70
2018-01-30T11:57:33.895Z,34.80
2018-01-30T12:00:01.363Z,37.80
2018-01-30T12:02:28.817Z,39.70
2018-01-30T12:04:56.272Z,40.10
2018-01-30T12:07:25.236Z,41.70
2018-01-30T12:09:52.740Z,41.80
2018-01-30T12:12:20.218Z,40.70
2018-01-30T12:14:47.678Z,41.20
2018-01-30T12:17:15.186Z,42.80
2018-01-30T12:19:42.658Z,42.70
2018-01-30T12:22:10.117Z,41.40
2018-01-30T12:24:37.570Z,41.80
2018-01-30T12:27:06.453Z,42.90
2018-01-30T12:29:33.928Z,42.70
2018-01-30T12:32:01.453Z,44.00
2018-01-30T12:34:29.673Z,43.30
2018-01-30T12:36:57.181Z,43.30
2018-01-30T12:39:24.638Z,43.60
2018-01-30T12:41:52.145Z,43.30
2018-01-30T12:44:19.627Z,43.80
2018-01-30T12:46:47.094Z,42.50
2018-01-30T12:49:14.594Z,43.60
2018-01-30T12:51:42.062Z,43.60
2018-01-30T12:54:09.531Z,44.00
2018-01-30T12:56:37.042Z,43.90
2018-01-30T12:59:04.499Z,46.10
2018-01-30T13:01:32.076Z,43.60
2018-01-30T13:03:59.521Z,43.70
2018-01-30T13:06:27.774Z,42.90
2018-01-30T13:08:55.230Z,43.20
2018-01-30T13:11:22.741Z,45.60
2018-01-30T13:13:50.238Z,45.40
2018-01-30T13:16:17.710Z,45.10
2018-01-30T13:18:45.206Z,45.20
2018-01-30T13:21:12.662Z,45.50
2018-01-30T13:23:40.113Z,45.20
2018-01-30T13:26:07.634Z,44.50
2018-01-30T13:28:35.090Z,43.90
2018-01-30T13:31:02.548Z,44.40
2018-01-30T13:33:30.772Z,44.60
2018-01-30T13:35:58.226Z,44.60
2018-01-30T13:38:26.484Z,42.80
2018-01-30T13:40:53.990Z,42.70
2018-01-30T13:43:21.412Z,44.30
2018-01-30T13:45:48.862Z,43.80
2018-01-30T13:48:17.141Z,45.10
2018-01-30T13:50:44.590Z,45.10
2018-01-30T13:53:12.048Z,45.10
2018-01-30T13:55:39.561Z,45.80
2018-01-30T13:58:07.008Z,46.70
2018-01-30T14:00:34.514Z,46.70
2018-01-30T14:03:01.974Z,47.10
2018-01-30T14:05:29.545Z,47.70
2018-01-30T14:07:56.956Z,47.60
2018-01-30T14:10:24.446Z,48.50
2018-01-30T14:12:51.941Z,50.30
2018-01-30T14:15:19.390Z,50.90
2018-01-30T14:17:46.849Z,50.40
2018-01-30T14:20:15.101Z,51.10
2018-01-30T14:22:42.580Z,51.10
2018-01-30T14:25:10.051Z,51.50
2018-01-30T14:27:37.537Z,52.00
2018-01-30T14:30:05.021Z,53.40
2018-01-30T14:32:32.503Z,51.90
2018-01-30T14:34:59.982Z,51.90
2018-01-30T14:37:27.471Z,52.60
2018-01-30T14:39:54.918Z,53.30
2018-01-30T14:42:22.372Z,54.20
2018-01-30T14:44:49.819Z,54.30
2018-01-30T14:47:17.292Z,54.30
2018-01-30T14:49:44.754Z,53.10
2018-01-30T14:52:12.214Z,54.20
2018-01-30T14:54:39.720Z,55.70
2018-01-30T14:57:07.180Z,56.80
2018-01-30T14:59:34.627Z,55.60
2018-01-30T15:02:02.173Z,53.90
2018-01-30T15:04:30.646Z,54.60
2018-01-30T15:06:58.165Z,53.10
2018-01-30T15:09:25.674Z,53.00
2018-01-30T15:11:53.195Z,53.90
2018-01-30T15:14:20.645Z,52.20
2018-01-30T15:16:48.197Z,54.50
2018-01-30T15:19:15.706Z,54.30
2018-01-30T15:21:43.225Z,53.70
2018-01-30T15:24:11.059Z,54.90
2018-01-30T15:26:38.535Z,56.50
2018-01-30T15:29:06.741Z,55.90
2018-01-30T15:31:35.074Z,58.60
2018-01-30T15:34:02.837Z,58.60
2018-01-30T15:36:30.326Z,59.00
2018-01-30T15:38:58.554Z,58.90
2018-01-30T15:41:26.082Z,58.80
2018-01-30T15:43:53.545Z,58.90
2018-01-30T15:46:21.186Z,61.20
2018-01-30T15:48:48.725Z,61.20
2018-01-30T15:51:16.243Z,63.10
2018-01-30T15:53:43.777Z,64.40
2018-01-30T15:56:12.031Z,65.60
2018-01-30T15:58:39.513Z,65.50
2018-01-30T16:01:07.015Z,65.70
2018-01-30T16:03:34.457Z,68.00
2018-01-30T16:06:01.910Z,68.70
2018-01-30T16:08:29.356Z,68.80
2018-01-30T16:10:56.837Z,69.00
2018-01-30T16:13:24.318Z,70.40
2018-01-30T16:15:51.797Z,70.60
2018-01-30T16:18:19.276Z,71.90
2018-01-30T16:20:46.734Z,73.10
2018-01-30T16:23:14.240Z,73.00
2018-01-30T16:25:41.691Z,74.10
2018-01-30T16:28:09.215Z,74.80
2018-01-30T16:30:36.670Z,75.10
2018-01-30T16:33:04.129Z,74.70
2018-01-30T16:35:31.660Z,75.00
2018-01-30T16:37:59.110Z,76.90
2018-01-30T16:40:27.423Z,77.90
2018-01-30T16:42:54.905Z,77.90
2018-01-30T16:45:22.471Z,78.70
2018-01-30T16:47:50.836Z,79.40
2018-01-30T16:50:18.484Z,79.30
2018-01-30T16:52:46.394Z,79.00
2018-01-30T16:55:15.697Z,80.10
2018-01-30T16:57:43.477Z,80.00
2018-01-30T17:00:11.297Z,80.90
2018-01-30T17:02:38.942Z,81.50
2018-01-30T17:05:06.674Z,81.40
2018-01-30T17:07:34.472Z,80.70
2018-01-30T17:10:02.465Z,81.60
2018-01-30T17:12:30.254Z,81.90
2018-01-30T17:14:57.864Z,81.40
2018-01-30T17:17:26.314Z,83.20
2018-01-30T17:19:54.093Z,83.90
2018-01-30T17:22:22.902Z,83.70
2018-01-30T17:24:50.720Z,84.50
2018-01-30T17:27:19.236Z,85.70
2018-01-30T17:29:47.023Z,85.70
2018-01-30T17:32:14.662Z,85.70
2018-01-30T17:34:42.343Z,84.80
2018-01-30T17:37:09.880Z,85.60
2018-01-30T17:39:37.661Z,85.50
2018-01-30T17:42:05.443Z,86.30
2018-01-30T17:44:34.065Z,87.00
2018-01-30T17:47:02.830Z,87.00
2018-01-30T17:49:30.454Z,87.30
2018-01-30T17:51:57.931Z,87.10
2018-01-30T17:54:26.241Z,86.90
2018-01-30T17:56:54.513Z,87.30
2018-01-30T17:59:22.836Z,88.70
2018-01-30T18:01:51.049Z,88.80
2018-01-30T18:04:18.518Z,88.20
2018-01-30T18:06:46.781Z,88.50
2018-01-30T18:09:14.259Z,88.30
2018-01-30T18:11:41.709Z,88.30
2018-01-30T18:14:09.161Z,89.40
2018-01-30T18:16:37.424Z,89.10
2018-01-30T18:19:04.918Z,89.00
2018-01-30T18:21:32.394Z,88.90
2018-01-30T18:23:59.847Z,89.80
2018-01-30T18:26:28.114Z,89.30
2018-01-30T18:28:58.552Z,90.20
2018-01-30T18:31:26.159Z,90.20
2018-01-30T18:33:54.434Z,90.20
2018-01-30T18:36:21.896Z,90.10
2018-01-30T18:38:50.195Z,90.60
2018-01-30T18:41:18.488Z,90.60
2018-01-30T18:43:46.357Z,90.60
2018-01-30T18:46:13.875Z,90.50
2018-01-30T18:48:41.403Z,90.20
2018-01-30T18:51:08.857Z,90.50
2018-01-30T18:53:36.332Z,91.00
2018-01-30T18:56:03.856Z,91.20
2018-01-30T18:58:31.329Z,91.20
2018-01-30T19:00:58.794Z,91.20
2018-01-30T19:03:26.283Z,91.20
2018-01-30T19:05:54.610Z,90.40
2018-01-30T19:08:22.086Z,90.40
2018-01-30T19:10:49.550Z,90.50
2018-01-30T19:13:17.294Z,90.50
2018-01-30T19:15:45.204Z,90.80
2018-01-30T19:18:12.673Z,91.00
2018-01-30T19:20:40.130Z,90.60
2018-01-30T19:23:08.429Z,90.70
2018-01-30T19:25:36.638Z,90.70
2018-01-30T19:28:04.889Z,90.90
2018-01-30T19:30:32.338Z,90.90
2018-01-30T19:32:59.794Z,91.00
2018-01-30T19:35:28.067Z,90.70
2018-01-30T19:37:55.518Z,90.70
2018-01-30T19:40:23.005Z,90.90
2018-01-30T19:42:52.215Z,91.30
2018-01-30T19:45:19.666Z,91.30
2018-01-30T19:47:47.290Z,91.60
2018-01-30T19:50:16.519Z,91.90
2018-01-30T19:52:44.782Z,91.80
2018-01-30T19:55:12.270Z,91.80
2018-01-30T19:57:39.767Z,91.70
2018-01-30T20:00:07.210Z,91.70
2018-01-30T20:02:34.744Z,91.90
2018-01-30T20:05:02.277Z,92.00
2018-01-30T20:07:29.728Z,91.90
2018-01-30T20:09:57.177Z,92.00
2018-01-30T20:12:24.726Z,92.10
2018-01-30T20:14:52.228Z,91.80
2018-01-30T20:20:13.837Z,91.60
2018-01-30T20:22:41.382Z,92.00
2018-01-30T20:25:08.859Z,91.90
2018-01-30T20:27:36.373Z,91.90
2018-01-30T20:30:03.830Z,92.20
2018-01-30T20:32:31.350Z,92.00
2018-01-30T20:34:58.885Z,92.10
2018-01-30T20:37:26.374Z,92.10
2018-01-30T20:39:54.088Z,92.40
2018-01-30T20:42:21.638Z,92.10
2018-01-30T20:44:49.145Z,91.90
2018-01-30T20:47:16.638Z,92.50
2018-01-30T20:49:44.131Z,92.30
2018-01-30T20:52:12.385Z,92.10
2018-01-30T20:54:39.845Z,92.10
2018-01-30T20:57:07.302Z,92.20
2018-01-30T20:59:35.572Z,92.10
2018-01-30T21:02:03.078Z,92.10
2018-01-30T21:04:31.349Z,92.30
2018-01-30T21:06:58.936Z,92.30
2018-01-30T21:09:26.449Z,92.30
2018-01-30T21:11:54.753Z,92.10
2018-01-30T21:14:23.023Z,92.30
2018-01-30T21:16:50.473Z,92.30
2018-01-30T21:19:17.934Z,92.20
2018-01-30T21:21:45.469Z,92.00
2018-01-30T21:24:12.992Z,92.20
2018-01-30T21:26:40.501Z,92.40
2018-01-30T21:29:08.014Z,92.40
2018-01-30T21:31:35.468Z,92.50
2018-01-30T21:34:02.932Z,92.40
2018-01-30T21:36:30.430Z,92.50
2018-01-30T21:38:57.941Z,92.60
2018-01-30T21:41:26.177Z,92.30
2018-01-30T21:43:54.466Z,92.30
2018-01-30T21:46:22.724Z,92.30
2018-01-30T21:48:50.216Z,92.30
2018-01-30T21:51:17.718Z,92.20
2018-01-30T21:53:45.182Z,92.40
2018-01-30T21:56:12.740Z,92.20
2018-01-30T21:58:40.229Z,92.20
2018-01-30T22:01:07.709Z,92.00
2018-01-30T22:03:35.185Z,92.20
2018-01-30T22:06:02.712Z,92.30
2018-01-30T22:08:30.166Z,92.40
2018-01-30T22:10:57.736Z,92.50
2018-01-30T22:13:25.213Z,92.30
2018-01-30T22:15:52.731Z,92.60
2018-01-30T22:18:20.182Z,92.60
2018-01-30T22:20:47.768Z,92.50
2018-01-30T22:23:15.500Z,92.50
2018-01-30T22:25:42.995Z,92.60
2018-01-30T22:28:11.222Z,92.50
2018-01-30T22:30:38.677Z,92.40
2018-01-30T22:33:06.193Z,92.40
2018-01-30T22:35:33.694Z,92.50
2018-01-30T22:38:01.177Z,92.60
2018-01-30T22:40:28.669Z,92.60
2018-01-30T22:42:56.140Z,92.60
2018-01-30T22:45:23.596Z,92.60
